createdAt,value
2019-03-17T00:00:05.217Z,15.50
2019-03-17T00:02:41.635Z,15.50
2019-03-17T00:05:16.368Z,15.50
2019-03-17T00:07:51.152Z,15.50
2019-03-17T00:10:25.875Z,15.50
2019-03-17T00:13:00.717Z,15.50
2019-03-17T00:15:35.472Z,15.50
2019-03-17T00:18:10.208Z,15.50
2019-03-17T00:20:44.960Z,15.50
2019-03-17T00:23:19.712Z,15.40
2019-03-17T00:25:54.640Z,15.50
2019-03-17T00:28:29.382Z,15.50
2019-03-17T00:31:04.355Z,15.50
2019-03-17T00:33:39.180Z,15.50
2019-03-17T00:36:14.003Z,15.50
2019-03-17T00:38:48.880Z,15.60
2019-03-17T00:41:23.704Z,15.60
2019-03-17T00:43:58.448Z,15.60
2019-03-17T00:46:33.259Z,15.60
2019-03-17T00:49:07.975Z,15.60
2019-03-17T00:51:42.719Z,15.60
2019-03-17T00:54:17.438Z,15.60
2019-03-17T00:56:52.183Z,15.60
2019-03-17T00:59:26.899Z,15.60
2019-03-17T01:02:01.663Z,15.60
2019-03-17T01:04:36.375Z,15.60
2019-03-17T01:07:11.181Z,15.60
2019-03-17T01:09:45.891Z,15.70
2019-03-17T01:12:21.592Z,15.70
2019-03-17T01:14:56.336Z,15.80
2019-03-17T01:17:31.078Z,15.80
2019-03-17T01:20:07.091Z,15.80
2019-03-17T01:22:41.843Z,15.80
2019-03-17T01:25:16.579Z,15.80
2019-03-17T01:27:51.384Z,15.80
2019-03-17T01:30:26.099Z,15.80
2019-03-17T01:33:00.903Z,15.80
2019-03-17T01:35:35.687Z,15.80
2019-03-17T01:38:10.426Z,15.80
2019-03-17T01:40:45.214Z,15.80
2019-03-17T01:43:20.001Z,15.80
2019-03-17T01:45:54.720Z,15.80
2019-03-17T01:48:29.460Z,15.90
2019-03-17T01:51:04.251Z,15.80
2019-03-17T01:53:39.088Z,15.80
2019-03-17T01:56:13.875Z,15.90
2019-03-17T01:58:48.606Z,15.90
2019-03-17T02:01:24.401Z,15.90
2019-03-17T02:03:59.216Z,16.00
2019-03-17T02:06:33.936Z,16.00
2019-03-17T02:09:09.121Z,15.90
2019-03-17T02:11:44.938Z,15.90
2019-03-17T02:14:19.827Z,15.90
2019-03-17T02:16:54.551Z,15.90
2019-03-17T02:19:29.288Z,16.00
2019-03-17T02:22:04.136Z,15.90
2019-03-17T02:24:38.876Z,15.80
2019-03-17T02:27:13.587Z,15.90
2019-03-17T02:29:48.323Z,15.80
2019-03-17T02:32:23.076Z,15.70
2019-03-17T02:34:57.807Z,15.70
2019-03-17T02:37:32.533Z,15.70
2019-03-17T02:40:07.438Z,15.70
2019-03-17T02:42:42.176Z,15.60
2019-03-17T02:45:16.899Z,15.60
2019-03-17T02:47:51.633Z,15.60
2019-03-17T02:50:26.365Z,15.70
2019-03-17T02:53:01.197Z,15.60
2019-03-17T02:55:35.928Z,15.60
2019-03-17T02:58:10.651Z,15.50
2019-03-17T03:00:45.456Z,15.50
2019-03-17T03:03:20.194Z,15.50
2019-03-17T03:05:55.730Z,15.50
2019-03-17T03:08:30.742Z,15.60
2019-03-17T03:11:06.608Z,15.60
2019-03-17T03:13:41.368Z,15.50
2019-03-17T03:16:16.084Z,15.50
2019-03-17T03:18:50.949Z,15.50
2019-03-17T03:21:25.791Z,15.50
2019-03-17T03:24:01.521Z,15.50
2019-03-17T03:26:36.274Z,15.50
2019-03-17T03:29:11.056Z,15.50
2019-03-17T03:31:45.814Z,15.60
2019-03-17T03:34:20.590Z,15.60
2019-03-17T03:36:55.414Z,15.50
2019-03-17T03:39:30.333Z,15.60
2019-03-17T03:42:05.232Z,15.60
2019-03-17T03:44:39.996Z,15.50
2019-03-17T03:47:15.976Z,15.50
2019-03-17T03:49:50.735Z,15.50
2019-03-17T03:52:25.580Z,15.50
2019-03-17T03:55:00.473Z,15.50
2019-03-17T03:57:35.346Z,15.60
2019-03-17T04:00:10.564Z,15.60
2019-03-17T04:02:45.474Z,15.70
2019-03-17T04:05:20.362Z,15.60
2019-03-17T04:07:55.167Z,15.60
2019-03-17T04:10:29.933Z,15.50
2019-03-17T04:13:04.864Z,15.50
2019-03-17T04:15:39.804Z,15.50
2019-03-17T04:18:14.641Z,15.50
2019-03-17T04:20:49.492Z,15.40
2019-03-17T04:23:24.384Z,15.50
2019-03-17T04:25:59.216Z,15.40
2019-03-17T04:28:33.977Z,15.20
2019-03-17T04:31:08.836Z,15.30
2019-03-17T04:33:43.582Z,15.20
2019-03-17T04:36:18.344Z,15.20
2019-03-17T04:38:53.123Z,15.20
2019-03-17T04:41:27.942Z,15.10
2019-03-17T04:44:02.706Z,14.90
2019-03-17T04:46:37.467Z,14.70
2019-03-17T04:49:12.213Z,14.40
2019-03-17T04:51:47.060Z,14.40
2019-03-17T04:54:21.896Z,14.20
2019-03-17T04:56:56.663Z,14.10
2019-03-17T04:59:32.378Z,13.90
2019-03-17T05:02:07.218Z,13.90
2019-03-17T05:04:41.969Z,13.80
2019-03-17T05:07:16.734Z,13.70
2019-03-17T05:09:51.562Z,13.70
2019-03-17T05:12:26.331Z,13.60
2019-03-17T05:15:01.100Z,13.60
2019-03-17T05:17:35.877Z,13.60
2019-03-17T05:20:11.006Z,13.50
2019-03-17T05:22:45.764Z,13.50
2019-03-17T05:25:20.623Z,13.30
2019-03-17T05:27:55.431Z,13.30
2019-03-17T05:30:31.293Z,13.30
2019-03-17T05:33:06.122Z,13.30
2019-03-17T05:35:40.955Z,13.30
2019-03-17T05:38:15.710Z,13.30
2019-03-17T05:40:50.484Z,13.30
2019-03-17T05:43:25.240Z,13.30
2019-03-17T05:46:00.101Z,13.30
2019-03-17T05:48:34.920Z,13.40
2019-03-17T05:51:09.711Z,13.50
2019-03-17T05:53:44.467Z,13.60
2019-03-17T05:56:19.380Z,13.70
2019-03-17T05:58:54.285Z,13.70
2019-03-17T06:01:30.036Z,13.70
2019-03-17T06:04:04.947Z,13.70
2019-03-17T06:06:39.774Z,13.70
2019-03-17T06:09:14.600Z,13.70
2019-03-17T06:11:49.358Z,13.80
2019-03-17T06:14:24.138Z,13.80
2019-03-17T06:17:00.107Z,13.80
2019-03-17T06:19:34.936Z,13.90
2019-03-17T06:22:09.744Z,13.90
2019-03-17T06:24:44.515Z,13.90
2019-03-17T06:27:19.272Z,14.00
2019-03-17T06:29:54.052Z,14.00
2019-03-17T06:32:28.810Z,14.00
2019-03-17T06:35:06.083Z,13.90
2019-03-17T06:37:40.976Z,14.10
2019-03-17T06:40:15.819Z,14.00
2019-03-17T06:42:50.562Z,14.00
2019-03-17T06:45:25.415Z,14.10
2019-03-17T06:48:00.179Z,14.10
2019-03-17T06:50:34.947Z,14.20
2019-03-17T06:53:09.711Z,14.20
2019-03-17T06:55:44.621Z,14.10
2019-03-17T06:58:19.382Z,14.10
2019-03-17T07:00:54.237Z,14.00
2019-03-17T07:03:29.239Z,14.00
2019-03-17T07:06:04.136Z,14.10
2019-03-17T07:08:38.958Z,14.00
2019-03-17T07:11:13.816Z,14.10
2019-03-17T07:13:48.755Z,14.10
2019-03-17T07:16:23.503Z,14.10
2019-03-17T07:19:00.884Z,14.20
2019-03-17T07:21:35.635Z,14.20
2019-03-17T07:24:10.408Z,14.30
2019-03-17T07:26:45.555Z,14.30
2019-03-17T07:29:21.011Z,14.40
2019-03-17T07:31:55.764Z,14.40
2019-03-17T07:34:30.543Z,14.50
2019-03-17T07:37:05.595Z,14.50
2019-03-17T07:39:40.343Z,14.50
2019-03-17T07:42:15.111Z,14.60
2019-03-17T07:44:49.943Z,14.70
2019-03-17T07:47:24.732Z,14.70
2019-03-17T07:49:59.489Z,14.80
2019-03-17T07:52:34.271Z,14.80
2019-03-17T07:55:09.566Z,14.80
2019-03-17T07:57:44.331Z,14.80
2019-03-17T08:00:30.882Z,14.80
2019-03-17T08:02:55.782Z,14.80
2019-03-17T08:05:30.671Z,14.90
2019-03-17T08:08:09.717Z,14.80
2019-03-17T08:10:42.193Z,15.00
2019-03-17T08:13:16.969Z,15.00
2019-03-17T08:15:52.102Z,15.10
2019-03-17T08:18:26.967Z,15.00
2019-03-17T08:21:01.906Z,15.00
2019-03-17T08:23:36.670Z,15.00
2019-03-17T08:26:11.528Z,15.00
2019-03-17T08:28:46.359Z,15.00
2019-03-17T08:31:21.219Z,15.00
2019-03-17T08:33:55.987Z,15.10
2019-03-17T08:36:30.829Z,15.20
2019-03-17T08:39:07.839Z,15.30
2019-03-17T08:41:42.615Z,15.30
2019-03-17T08:44:17.458Z,15.30
2019-03-17T08:46:52.214Z,15.20
2019-03-17T08:49:27.140Z,15.10
2019-03-17T08:52:01.992Z,15.20
2019-03-17T08:54:37.188Z,15.10
2019-03-17T08:57:12.382Z,15.30
2019-03-17T08:59:55.047Z,15.30
2019-03-17T09:02:44.469Z,15.40
2019-03-17T09:05:21.142Z,15.50
2019-03-17T09:08:02.674Z,15.60
2019-03-17T09:10:49.931Z,15.80
2019-03-17T09:13:30.378Z,16.00
2019-03-17T09:16:05.371Z,16.00
2019-03-17T09:21:42.998Z,16.20
2019-03-17T09:24:22.924Z,16.20
2019-03-17T09:30:01.788Z,16.20
2019-03-17T09:32:43.033Z,16.10
2019-03-17T09:35:40.244Z,16.20
2019-03-17T09:38:20.041Z,16.10
2019-03-17T09:40:55.228Z,16.10
2019-03-17T09:43:32.253Z,16.10
2019-03-17T09:46:27.548Z,16.00
2019-03-17T09:49:25.511Z,16.00
2019-03-17T09:52:02.490Z,16.00
2019-03-17T09:54:37.389Z,16.00
2019-03-17T09:57:12.215Z,15.90
2019-03-17T09:59:49.144Z,16.00
2019-03-17T10:02:26.003Z,15.80
2019-03-17T10:05:02.559Z,15.90
2019-03-17T10:10:38.432Z,15.80
2019-03-17T10:13:18.303Z,15.90
2019-03-17T10:15:53.585Z,15.90
2019-03-17T10:18:34.861Z,16.00
2019-03-17T10:21:09.917Z,16.00
2019-03-17T10:23:46.228Z,16.10
2019-03-17T10:26:44.381Z,16.10
2019-03-17T10:33:38.572Z,16.20
2019-03-17T10:36:14.490Z,16.20
2019-03-17T10:38:49.473Z,16.30
2019-03-17T10:41:24.573Z,16.30
2019-03-17T10:43:59.396Z,16.30
2019-03-17T10:46:51.047Z,16.20
2019-03-17T10:49:25.868Z,16.20
2019-03-17T10:52:00.635Z,16.30
2019-03-17T10:54:35.495Z,16.40
2019-03-17T10:57:10.341Z,16.70
2019-03-17T10:59:45.175Z,16.80
2019-03-17T11:02:20.088Z,17.10
2019-03-17T11:04:54.876Z,17.20
2019-03-17T11:07:29.648Z,17.30
2019-03-17T11:10:04.759Z,17.50
2019-03-17T11:12:39.590Z,17.20
2019-03-17T11:15:14.746Z,17.30
2019-03-17T11:17:51.236Z,17.30
2019-03-17T11:20:26.235Z,17.30
2019-03-17T11:23:01.161Z,17.00
2019-03-17T11:25:36.067Z,16.80
2019-03-17T11:28:10.830Z,16.70
2019-03-17T11:31:00.079Z,16.70
2019-03-17T11:33:34.931Z,16.60
2019-03-17T11:36:09.778Z,16.50
2019-03-17T11:38:44.767Z,16.50
2019-03-17T11:41:19.535Z,16.50
2019-03-17T11:43:54.320Z,16.00
2019-03-17T11:46:33.760Z,16.00
2019-03-17T11:49:08.942Z,16.00
2019-03-17T11:51:43.762Z,16.00
2019-03-17T11:54:18.696Z,16.10
2019-03-17T11:56:53.596Z,16.20
2019-03-17T11:59:28.605Z,16.30
2019-03-17T12:02:03.423Z,16.30
2019-03-17T12:07:35.674Z,16.30
2019-03-17T12:10:12.887Z,15.90
2019-03-17T12:12:49.640Z,15.80
2019-03-17T12:15:30.255Z,15.70
2019-03-17T12:18:13.409Z,15.60
2019-03-17T12:20:49.655Z,15.60
2019-03-17T12:23:32.268Z,15.30
2019-03-17T12:29:17.979Z,15.10
2019-03-17T12:31:58.284Z,15.00
2019-03-17T12:34:41.028Z,15.10
2019-03-17T12:37:18.074Z,14.90
2019-03-17T12:40:02.178Z,13.60
2019-03-17T12:42:50.011Z,13.30
2019-03-17T12:45:27.773Z,13.00
2019-03-17T12:48:02.748Z,12.60
2019-03-17T12:50:37.695Z,12.10
2019-03-17T12:53:12.667Z,11.20
2019-03-17T12:55:47.802Z,11.00
2019-03-17T12:58:25.157Z,10.80
2019-03-17T13:01:00.300Z,10.30
2019-03-17T13:03:35.293Z,10.30
2019-03-17T13:06:10.272Z,10.10
2019-03-17T13:08:46.610Z,9.70
2019-03-17T13:11:22.931Z,9.50
2019-03-17T13:14:00.112Z,9.30
2019-03-17T13:16:37.855Z,9.20
2019-03-17T13:19:18.200Z,9.20
2019-03-17T13:21:53.516Z,9.10
2019-03-17T13:24:30.231Z,9.20
2019-03-17T13:27:09.880Z,9.20
2019-03-17T13:29:44.365Z,9.50
2019-03-17T13:32:22.083Z,9.80
2019-03-17T13:34:57.064Z,10.00
2019-03-17T13:37:32.453Z,10.00
2019-03-17T13:40:11.725Z,10.20
2019-03-17T13:42:57.086Z,9.90
2019-03-17T13:45:38.073Z,10.00
2019-03-17T13:48:13.478Z,10.10
2019-03-17T13:50:50.583Z,9.60
2019-03-17T13:53:26.073Z,9.70
2019-03-17T13:56:01.521Z,10.00
2019-03-17T13:58:36.290Z,10.10
2019-03-17T14:01:11.113Z,10.30
2019-03-17T14:03:49.419Z,10.30
2019-03-17T14:06:24.360Z,10.30
2019-03-17T14:08:59.264Z,10.40
2019-03-17T14:11:34.165Z,10.50
2019-03-17T14:14:09.826Z,10.50
2019-03-17T14:16:44.753Z,10.30
2019-03-17T14:19:19.595Z,10.30
2019-03-17T14:21:54.379Z,10.30
2019-03-17T14:24:29.232Z,10.20
2019-03-17T14:27:04.245Z,10.20
2019-03-17T14:29:39.089Z,10.30
2019-03-17T14:32:13.948Z,10.00
2019-03-17T14:34:48.735Z,10.00
2019-03-17T14:37:23.564Z,9.80
2019-03-17T14:39:58.362Z,9.90
2019-03-17T14:42:33.224Z,9.90
2019-03-17T14:45:08.555Z,9.90
2019-03-17T14:47:43.504Z,9.90
2019-03-17T14:50:18.596Z,9.80
2019-03-17T14:52:53.519Z,9.80
2019-03-17T14:55:28.672Z,9.80
2019-03-17T14:58:03.811Z,9.80
2019-03-17T15:00:38.712Z,9.90
2019-03-17T15:03:13.652Z,9.90
2019-03-17T15:05:48.395Z,9.90
2019-03-17T15:08:23.301Z,9.90
2019-03-17T15:11:05.777Z,9.80
2019-03-17T15:13:34.620Z,9.90
2019-03-17T15:16:15.572Z,9.90
2019-03-17T15:18:50.415Z,9.90
2019-03-17T15:21:25.368Z,9.80
2019-03-17T15:24:00.288Z,9.90
2019-03-17T15:26:37.788Z,9.90
2019-03-17T15:29:12.912Z,10.00
2019-03-17T15:31:50.628Z,9.90
2019-03-17T15:34:28.783Z,10.10
2019-03-17T15:37:05.196Z,10.00
2019-03-17T15:39:42.374Z,9.90
2019-03-17T15:42:19.494Z,9.90
2019-03-17T15:44:55.622Z,9.90
2019-03-17T15:47:30.487Z,9.90
2019-03-17T15:50:06.851Z,9.90
2019-03-17T15:52:41.775Z,9.80
2019-03-17T15:55:16.779Z,9.80
2019-03-17T15:57:51.932Z,9.80
2019-03-17T16:00:27.284Z,9.80
2019-03-17T16:03:02.348Z,9.90
2019-03-17T16:05:37.199Z,9.80
2019-03-17T16:08:12.127Z,9.90
2019-03-17T16:10:46.920Z,9.80
2019-03-17T16:13:22.939Z,9.80
2019-03-17T16:15:57.791Z,9.70
2019-03-17T16:18:33.719Z,9.60
2019-03-17T16:21:09.092Z,9.50
2019-03-17T16:23:44.173Z,9.40
2019-03-17T16:26:19.005Z,9.40
2019-03-17T16:28:53.871Z,9.10
2019-03-17T16:31:28.803Z,9.00
2019-03-17T16:34:04.939Z,8.80
2019-03-17T16:36:39.857Z,8.40
2019-03-17T16:39:14.630Z,8.50
2019-03-17T16:41:49.384Z,8.40
2019-03-17T16:44:24.306Z,8.60
2019-03-17T16:47:00.772Z,8.60
2019-03-17T16:49:35.913Z,8.70
2019-03-17T16:52:10.844Z,8.60
2019-03-17T16:54:45.723Z,8.60
2019-03-17T16:57:22.597Z,8.50
2019-03-17T16:59:57.408Z,8.60
2019-03-17T17:02:32.247Z,8.70
2019-03-17T17:05:07.620Z,8.70
2019-03-17T17:07:43.431Z,8.70
2019-03-17T17:10:18.826Z,8.70
2019-03-17T17:12:53.722Z,8.80
2019-03-17T17:15:28.690Z,8.80
2019-03-17T17:18:03.687Z,8.80
2019-03-17T17:20:39.731Z,8.90
2019-03-17T17:23:14.604Z,8.90
2019-03-17T17:25:49.554Z,8.70
2019-03-17T17:28:24.504Z,8.70
2019-03-17T17:30:59.423Z,8.70
2019-03-17T17:33:34.188Z,8.70
2019-03-17T17:36:08.935Z,8.70
2019-03-17T17:38:43.768Z,8.60
2019-03-17T17:41:18.539Z,8.70
2019-03-17T17:43:53.324Z,8.60
2019-03-17T17:46:28.155Z,8.70
2019-03-17T17:49:03.159Z,8.60
2019-03-17T17:51:38.983Z,8.60
2019-03-17T17:54:13.733Z,8.70
2019-03-17T17:56:48.646Z,8.80
2019-03-17T17:59:23.491Z,8.80
2019-03-17T18:01:59.345Z,8.80
2019-03-17T18:04:34.124Z,8.90
2019-03-17T18:07:08.911Z,8.90
2019-03-17T18:09:43.656Z,9.00
2019-03-17T18:12:21.289Z,8.90
2019-03-17T18:14:54.982Z,9.00
2019-03-17T18:17:30.746Z,9.00
2019-03-17T18:20:06.662Z,8.90
2019-03-17T18:22:41.680Z,8.90
2019-03-17T18:25:16.648Z,9.00
2019-03-17T18:27:51.500Z,9.10
2019-03-17T18:30:26.333Z,9.10
2019-03-17T18:33:01.325Z,9.10
2019-03-17T18:35:37.164Z,9.20
2019-03-17T18:38:12.089Z,9.00
2019-03-17T18:40:46.905Z,9.00
2019-03-17T18:43:21.959Z,9.00
2019-03-17T18:45:58.791Z,9.00
2019-03-17T18:48:39.469Z,9.10
2019-03-17T18:51:14.340Z,9.00
2019-03-17T18:53:49.196Z,8.90
2019-03-17T18:56:24.040Z,8.90
2019-03-17T18:58:59.056Z,8.90
2019-03-17T19:01:34.423Z,8.90
2019-03-17T19:04:09.173Z,8.90
2019-03-17T19:06:43.947Z,8.80
2019-03-17T19:09:18.752Z,8.80
2019-03-17T19:11:53.523Z,8.70
2019-03-17T19:14:28.338Z,8.70
2019-03-17T19:17:03.327Z,8.60
2019-03-17T19:19:39.124Z,8.60
2019-03-17T19:22:14.031Z,8.50
2019-03-17T19:24:48.857Z,8.60
2019-03-17T19:27:23.847Z,8.60
2019-03-17T19:29:58.623Z,8.70
2019-03-17T19:32:33.470Z,8.60
2019-03-17T19:35:09.368Z,8.60
2019-03-17T19:37:44.366Z,8.50
2019-03-17T19:40:19.296Z,8.50
2019-03-17T19:42:59.151Z,8.60
2019-03-17T19:45:30.984Z,8.60
2019-03-17T19:48:05.821Z,8.60
2019-03-17T19:50:43.900Z,8.50
2019-03-17T19:53:18.727Z,8.40
2019-03-17T19:55:53.612Z,8.40
2019-03-17T19:58:30.739Z,8.40
2019-03-17T20:01:05.921Z,8.30
2019-03-17T20:03:40.761Z,8.40
2019-03-17T20:06:15.571Z,8.30
2019-03-17T20:08:50.331Z,8.10
2019-03-17T20:11:25.821Z,8.20
2019-03-17T20:14:01.016Z,8.20
2019-03-17T20:16:43.596Z,8.10
2019-03-17T20:19:18.444Z,8.00
2019-03-17T20:21:53.311Z,8.00
2019-03-17T20:24:28.072Z,8.00
2019-03-17T20:27:04.421Z,8.00
2019-03-17T20:29:39.191Z,8.10
2019-03-17T20:32:13.948Z,8.10
2019-03-17T20:34:48.887Z,7.90
2019-03-17T20:37:23.663Z,7.90
2019-03-17T20:39:58.477Z,7.90
2019-03-17T20:42:33.248Z,7.90
2019-03-17T20:45:08.692Z,7.90
2019-03-17T20:47:43.665Z,7.80
2019-03-17T20:50:18.588Z,7.70
2019-03-17T20:52:53.634Z,7.70
2019-03-17T20:55:28.403Z,7.70
2019-03-17T20:58:03.245Z,7.70
2019-03-17T21:00:38.096Z,7.80
2019-03-17T21:03:12.931Z,7.70
2019-03-17T21:05:48.984Z,7.70
2019-03-17T21:08:23.758Z,7.70
2019-03-17T21:10:58.759Z,7.70
2019-03-17T21:13:45.911Z,7.60
2019-03-17T21:16:10.076Z,7.60
2019-03-17T21:18:44.843Z,7.60
2019-03-17T21:21:19.664Z,7.60
2019-03-17T21:23:54.524Z,7.60
2019-03-17T21:26:29.373Z,7.60
2019-03-17T21:29:04.249Z,7.70
2019-03-17T21:31:39.030Z,7.60
2019-03-17T21:34:13.791Z,7.50
2019-03-17T21:36:48.621Z,7.40
2019-03-17T21:39:23.480Z,7.40
2019-03-17T21:41:58.298Z,7.40
2019-03-17T21:44:33.079Z,7.30
2019-03-17T21:47:08.895Z,7.30
2019-03-17T21:49:43.668Z,7.30
2019-03-17T21:52:18.430Z,7.40
2019-03-17T21:54:53.196Z,7.40
2019-03-17T21:57:27.944Z,7.30
2019-03-17T22:00:02.884Z,7.40
2019-03-17T22:02:37.618Z,7.40
2019-03-17T22:05:12.703Z,7.30
2019-03-17T22:07:50.666Z,7.40
2019-03-17T22:10:24.096Z,7.30
2019-03-17T22:12:59.012Z,7.30
2019-03-17T22:15:33.855Z,7.30
2019-03-17T22:18:08.764Z,7.30
2019-03-17T22:20:43.671Z,7.30
2019-03-17T22:23:18.427Z,7.40
2019-03-17T22:25:53.554Z,7.40
2019-03-17T22:28:28.332Z,7.40
2019-03-17T22:31:03.195Z,7.40
2019-03-17T22:33:37.944Z,7.40
2019-03-17T22:36:12.704Z,7.40
2019-03-17T22:38:47.456Z,7.40
2019-03-17T22:41:23.299Z,7.40
2019-03-17T22:43:58.089Z,7.30
2019-03-17T22:46:32.926Z,7.30
2019-03-17T22:49:07.868Z,7.40
2019-03-17T22:51:42.703Z,7.30
2019-03-17T22:54:17.551Z,7.40
2019-03-17T22:56:52.391Z,7.30
2019-03-17T22:59:28.131Z,7.30
2019-03-17T23:02:03.048Z,7.40
2019-03-17T23:04:37.825Z,7.50
2019-03-17T23:07:12.742Z,7.40
2019-03-17T23:09:47.746Z,7.40
2019-03-17T23:12:22.581Z,7.40
2019-03-17T23:14:57.363Z,7.40
2019-03-17T23:17:32.179Z,7.40
2019-03-17T23:20:07.895Z,7.40
2019-03-17T23:22:42.723Z,7.40
2019-03-17T23:25:17.569Z,7.40
2019-03-17T23:27:52.405Z,7.30
2019-03-17T23:30:27.372Z,7.30
2019-03-17T23:33:02.175Z,7.30
2019-03-17T23:35:37.015Z,7.30
2019-03-17T23:38:11.840Z,7.30
2019-03-17T23:40:46.760Z,7.30
2019-03-17T23:43:21.606Z,7.30
2019-03-17T23:45:56.474Z,7.30
2019-03-17T23:48:31.300Z,7.30
2019-03-17T23:51:06.340Z,7.30
2019-03-17T23:53:41.175Z,7.30
2019-03-17T23:56:15.936Z,7.30
2019-03-17T23:58:50.701Z,7.40
